Terminal Aerodrome Forecast
Issued by NWS

Home | Current Version | Previous Version | Text Only | Print | Product List | Glossary Off
Versions: 1 2 3 4 5 6 7 8 9 10 11 12 13 14 15 16 17

222
FTUS43 KMPX 250520
TAFRNH
TAF
KRNH 250520Z 2506/2606 06007KT P6SM OVC015
     FM251700 07012G18KT P6SM OVC020
     FM260100 06008KT P6SM VCSH OVC015=

USA.gov is the U.S. government's official web portal to all federal, state and local government web resources and services.